GLO1921 SBRF-SBSV
Flight info
| Callsign | GLO1921 |
|---|---|
| Flight time | N/A |
| Altitude | 36000 |
| Route | MEXAR UZ14 AKPAS |
| Aircraft | B738/M-SDFGIKLORWX/LB1 |
Departure
| Time | N/A |
|---|---|
| Airport | Recife/Guararapes - Gilberto Freyre International Airport (SBRF) |
Arrival
| Time | 2026-04-29 15:18 |
|---|---|
| Airport | Deputado Luiz Eduardo Magalhães International Airport (SBSV) |
| Time | Latitude | Longitude | Altitude | Speed | Heading |
|---|---|---|---|---|---|
| 2026-04-29 15:07 | -12.71383 | -38.11188 | 10598 ft | 339 kts | 217° |
| 2026-04-29 15:07 | -12.73185 | -38.12686 | 10442 ft | 328 kts | 217° |
| 2026-04-29 15:07 | -12.74931 | -38.14137 | 10291 ft | 318 kts | 217° |
| 2026-04-29 15:08 | -12.76561 | -38.15622 | 10137 ft | 311 kts | 229° |
| 2026-04-29 15:08 | -12.77599 | -38.17533 | 10031 ft | 305 kts | 251° |
| 2026-04-29 15:08 | -12.78084 | -38.19612 | 9869 ft | 298 kts | 256° |
| 2026-04-29 15:08 | -12.78497 | -38.21708 | 9514 ft | 300 kts | 257° |
| 2026-04-29 15:09 | -12.78902 | -38.23803 | 9204 ft | 299 kts | 257° |
| 2026-04-29 15:09 | -12.79310 | -38.25889 | 8888 ft | 298 kts | 257° |
| 2026-04-29 15:09 | -12.79723 | -38.27967 | 8569 ft | 297 kts | 256° |
| 2026-04-29 15:09 | -12.80133 | -38.30006 | 8284 ft | 295 kts | 256° |
| 2026-04-29 15:10 | -12.80548 | -38.32059 | 7978 ft | 294 kts | 256° |
| 2026-04-29 15:10 | -12.80964 | -38.34104 | 7679 ft | 292 kts | 256° |
| 2026-04-29 15:10 | -12.81378 | -38.36136 | 7369 ft | 291 kts | 256° |
| 2026-04-29 15:10 | -12.81790 | -38.38159 | 7054 ft | 290 kts | 256° |
| 2026-04-29 15:11 | -12.82200 | -38.40189 | 6602 ft | 294 kts | 257° |
| 2026-04-29 15:11 | -12.82615 | -38.42263 | 6143 ft | 299 kts | 257° |
| 2026-04-29 15:11 | -12.83036 | -38.44367 | 5638 ft | 303 kts | 257° |
| 2026-04-29 15:11 | -12.83457 | -38.46471 | 5107 ft | 300 kts | 257° |
| 2026-04-29 15:12 | -12.83946 | -38.48533 | 4598 ft | 294 kts | 246° |
| 2026-04-29 15:12 | -12.84621 | -38.49715 | 4268 ft | 289 kts | 228° |
| 2026-04-29 15:12 | -12.86746 | -38.51193 | 3822 ft | 269 kts | 195° |
| 2026-04-29 15:12 | -12.88541 | -38.51493 | 3556 ft | 256 kts | 175° |
| 2026-04-29 15:13 | -12.90224 | -38.51246 | 3480 ft | 234 kts | 167° |
| 2026-04-29 15:13 | -12.91764 | -38.50925 | 3250 ft | 219 kts | 163° |
| 2026-04-29 15:13 | -12.92973 | -38.50173 | 3136 ft | 197 kts | 124° |
| 2026-04-29 15:13 | -12.93365 | -38.48886 | 2986 ft | 187 kts | 96° |
| 2026-04-29 15:14 | -12.93505 | -38.47589 | 2752 ft | 182 kts | 97° |
| 2026-04-29 15:14 | -12.93503 | -38.46309 | 2513 ft | 175 kts | 86° |
| 2026-04-29 15:14 | -12.93387 | -38.45110 | 2298 ft | 165 kts | 83° |
| 2026-04-29 15:14 | -12.93203 | -38.44008 | 2106 ft | 150 kts | 80° |
| 2026-04-29 15:15 | -12.93005 | -38.42986 | 1901 ft | 144 kts | 79° |
| 2026-04-29 15:15 | -12.92804 | -38.41979 | 1710 ft | 145 kts | 79° |
| 2026-04-29 15:15 | -12.92601 | -38.40962 | 1536 ft | 146 kts | 79° |
| 2026-04-29 15:15 | -12.92397 | -38.39948 | 1320 ft | 143 kts | 79° |
| 2026-04-29 15:16 | -12.92197 | -38.38954 | 1135 ft | 142 kts | 78° |
| 2026-04-29 15:16 | -12.91999 | -38.37960 | 946 ft | 142 kts | 78° |
| 2026-04-29 15:16 | -12.91798 | -38.36960 | 754 ft | 143 kts | 78° |
| 2026-04-29 15:16 | -12.91594 | -38.35956 | 578 ft | 145 kts | 78° |
| 2026-04-29 15:17 | -12.91384 | -38.34943 | 360 ft | 145 kts | 79° |
| 2026-04-29 15:17 | -12.91188 | -38.33936 | 154 ft | 143 kts | 79° |
| 2026-04-29 15:17 | -12.90992 | -38.32952 | 47 ft | 132 kts | 79° |
| 2026-04-29 15:17 | -12.90886 | -38.32408 | 51 ft | 103 kts | 78° |
| 2026-04-29 15:18 | -12.90767 | -38.31812 | 44 ft | 20 kts | 79° |
| 2026-04-29 15:18 | -12.90819 | -38.31720 | 47 ft | 16 kts | 158° |
| 2026-04-29 15:18 | -12.90909 | -38.31742 | 51 ft | 14 kts | 238° |
| 2026-04-29 15:18 | -12.90931 | -38.31837 | 52 ft | 14 kts | 258° |
| 2026-04-29 15:19 | -12.90950 | -38.31929 | 52 ft | 13 kts | 258° |
| 2026-04-29 15:19 | -12.90969 | -38.32021 | 52 ft | 14 kts | 258° |
| 2026-04-29 15:19 | -12.90983 | -38.32093 | 52 ft | 17 kts | 258° |
| 2026-04-29 15:19 | -12.91011 | -38.32235 | 52 ft | 23 kts | 258° |
| 2026-04-29 15:20 | -12.91055 | -38.32451 | 51 ft | 23 kts | 258° |
| 2026-04-29 15:20 | -12.91076 | -38.32554 | 48 ft | 22 kts | 259° |
| 2026-04-29 15:20 | -12.91116 | -38.32756 | 49 ft | 21 kts | 258° |
| 2026-04-29 15:20 | -12.91137 | -38.32856 | 47 ft | 21 kts | 258° |
| 2026-04-29 15:21 | -12.91165 | -38.32999 | 45 ft | 20 kts | 259° |
| 2026-04-29 15:21 | -12.91192 | -38.33137 | 43 ft | 15 kts | 258° |
| 2026-04-29 15:21 | -12.91245 | -38.33179 | 43 ft | 11 kts | 182° |
| 2026-04-29 15:21 | -12.91312 | -38.33208 | 42 ft | 10 kts | 208° |
| 2026-04-29 15:22 | -12.91350 | -38.33229 | 43 ft | 0 kts | 207° |